createdAt,value
2022-11-02T00:02:13.777Z,100
2022-11-02T00:07:53.910Z,100
2022-11-02T00:13:34.175Z,100
2022-11-02T00:19:15.114Z,98
2022-11-02T00:24:55.379Z,102
2022-11-02T00:30:36.000Z,98
2022-11-02T00:36:16.054Z,86
2022-11-02T00:41:56.078Z,92
2022-11-02T00:47:36.296Z,106
2022-11-02T00:53:16.644Z,104
2022-11-02T01:04:36.928Z,94
2022-11-02T01:10:17.216Z,92
2022-11-02T01:15:57.370Z,94
2022-11-02T01:21:37.868Z,104
2022-11-02T01:27:18.139Z,84
2022-11-02T01:33:01.552Z,98
2022-11-02T01:38:41.965Z,104
2022-11-02T01:44:22.471Z,96
2022-11-02T01:50:02.907Z,104
2022-11-02T01:55:43.493Z,94
2022-11-02T02:01:24.896Z,90
2022-11-02T02:07:05.340Z,104
2022-11-02T02:12:45.617Z,106
2022-11-02T02:24:06.547Z,92
2022-11-02T02:29:46.611Z,90
2022-11-02T02:35:26.847Z,92
2022-11-02T02:41:07.510Z,104
2022-11-02T02:47:10.720Z,98
2022-11-02T02:52:51.177Z,100
2022-11-02T02:58:31.414Z,100
2022-11-02T03:04:11.704Z,104
2022-11-02T03:09:52.218Z,100
2022-11-02T03:15:32.363Z,100
2022-11-02T03:21:12.379Z,94
2022-11-02T03:26:53.086Z,98
2022-11-02T03:32:33.372Z,102
2022-11-02T03:38:13.488Z,94
2022-11-02T03:43:53.928Z,96
2022-11-02T03:49:34.117Z,92
2022-11-02T03:55:14.403Z,104
2022-11-02T04:00:54.763Z,90
2022-11-02T04:06:35.013Z,102
2022-11-02T04:12:15.373Z,104
2022-11-02T04:17:55.746Z,94
2022-11-02T04:23:36.178Z,96
2022-11-02T04:29:16.384Z,100
2022-11-02T04:34:56.855Z,94
2022-11-02T04:40:37.047Z,90
2022-11-02T04:46:17.376Z,104
2022-11-02T04:51:57.482Z,94
2022-11-02T04:57:38.433Z,90
2022-11-02T05:03:18.713Z,100
2022-11-02T05:08:59.096Z,100
2022-11-02T05:14:39.295Z,104
2022-11-02T05:20:19.424Z,106
2022-11-02T05:25:59.647Z,102
2022-11-02T05:31:39.725Z,94
2022-11-02T05:37:19.873Z,104
2022-11-02T05:43:00.424Z,90
2022-11-02T05:48:40.731Z,94
2022-11-02T05:54:20.800Z,96
2022-11-02T06:00:01.289Z,94
2022-11-02T06:05:42.741Z,90
2022-11-02T06:11:28.666Z,104
2022-11-02T06:17:08.990Z,102
2022-11-02T06:22:52.899Z,106
2022-11-02T06:34:13.384Z,90
2022-11-02T06:39:53.669Z,84
2022-11-02T06:45:33.966Z,88
2022-11-02T06:51:14.235Z,100
2022-11-02T06:56:54.518Z,90
2022-11-02T07:02:36.075Z,102
2022-11-02T07:08:16.470Z,90
2022-11-02T07:13:56.924Z,102
2022-11-02T07:19:36.977Z,94
2022-11-02T07:25:17.417Z,98
2022-11-02T07:30:57.817Z,102
2022-11-02T07:36:38.182Z,96
2022-11-02T07:42:18.579Z,98
2022-11-02T07:53:38.998Z,106
2022-11-02T07:59:19.235Z,104
2022-11-02T08:04:59.650Z,102
2022-11-02T08:10:42.489Z,92
2022-11-02T08:16:23.218Z,102
2022-11-02T08:22:03.382Z,96
2022-11-02T08:27:43.655Z,110
2022-11-02T08:33:24.001Z,98
2022-11-02T08:39:04.339Z,100
2022-11-02T08:44:44.786Z,104
2022-11-02T08:50:25.242Z,98
2022-11-02T08:56:05.767Z,94
2022-11-02T09:01:47.620Z,26
2022-11-02T09:13:09.479Z,16
2022-11-02T09:18:52.712Z,14
2022-11-02T09:24:35.717Z,24
2022-11-02T09:30:15.899Z,20
2022-11-02T09:35:56.358Z,20
2022-11-02T09:41:36.602Z,24
2022-11-02T09:48:29.388Z,28
2022-11-02T09:54:18.630Z,28
2022-11-02T09:59:59.153Z,50
2022-11-02T10:11:19.270Z,8
2022-11-02T10:17:00.203Z,16
2022-11-02T10:22:40.087Z,14
2022-11-02T10:28:21.255Z,6
2022-11-02T10:34:02.202Z,10
2022-11-02T10:39:42.624Z,20
2022-11-02T10:45:22.771Z,0
2022-11-02T10:51:06.114Z,0
2022-11-02T10:56:46.401Z,6
2022-11-02T11:02:26.319Z,0
2022-11-02T11:08:09.044Z,0
2022-11-02T11:15:50.864Z,16
2022-11-02T11:21:31.955Z,0
2022-11-02T11:27:12.377Z,0
2022-11-02T11:32:52.715Z,0
2022-11-02T11:38:39.061Z,8
2022-11-02T11:44:32.150Z,2
2022-11-02T11:50:31.847Z,28
2022-11-02T11:56:12.055Z,4
2022-11-02T12:02:05.903Z,2
2022-11-02T12:07:46.455Z,0
2022-11-02T12:13:26.863Z,0
2022-11-02T12:19:07.738Z,0
2022-11-02T12:24:50.934Z,0
2022-11-02T12:30:31.263Z,0
2022-11-02T12:36:11.663Z,100
2022-11-02T12:41:57.914Z,0
2022-11-02T12:47:37.943Z,74
2022-11-02T12:53:18.032Z,46
2022-11-02T12:58:58.305Z,96
2022-11-02T13:04:40.434Z,0
2022-11-02T13:10:23.454Z,0
2022-11-02T13:16:04.196Z,24
2022-11-02T13:21:44.940Z,96
2022-11-02T13:27:43.525Z,10
2022-11-02T13:33:24.599Z,72
2022-11-02T13:39:11.074Z,92
2022-11-02T13:50:32.001Z,82
2022-11-02T13:56:12.272Z,26
2022-11-02T14:01:54.708Z,92
2022-11-02T14:07:35.304Z,92
2022-11-02T14:13:15.885Z,14
2022-11-02T14:18:56.402Z,90
2022-11-02T14:24:36.781Z,74
2022-11-02T14:30:17.083Z,68
2022-11-02T14:35:57.561Z,90
2022-11-02T14:41:37.539Z,92
2022-11-02T14:47:17.788Z,90
2022-11-02T14:52:57.982Z,76
2022-11-02T14:58:38.707Z,70
2022-11-02T15:04:19.392Z,86
2022-11-02T15:10:00.097Z,82
2022-11-02T15:15:40.399Z,88
2022-11-02T15:21:20.617Z,68
2022-11-02T15:27:00.821Z,84
2022-11-02T15:32:41.102Z,88
2022-11-02T15:38:40.826Z,80
2022-11-02T15:44:21.478Z,88
2022-11-02T15:50:01.681Z,66
2022-11-02T15:55:41.781Z,86
2022-11-02T16:01:23.320Z,60
2022-11-02T16:07:03.752Z,92
2022-11-02T16:12:43.903Z,90
2022-11-02T16:18:23.974Z,66
2022-11-02T16:24:04.221Z,58
2022-11-02T16:35:24.655Z,80
2022-11-02T16:41:05.021Z,86
2022-11-02T16:46:45.190Z,72
2022-11-02T16:52:28.412Z,88
2022-11-02T16:58:09.377Z,66
2022-11-02T17:03:49.753Z,64
2022-11-02T17:09:30.360Z,64
2022-11-02T17:15:10.654Z,60
2022-11-02T17:20:51.055Z,68
2022-11-02T17:26:31.308Z,90
2022-11-02T17:32:12.268Z,94
2022-11-02T17:37:52.518Z,98
2022-11-02T17:43:33.160Z,86
2022-11-02T17:49:13.484Z,96
2022-11-02T17:54:53.666Z,96
2022-11-02T18:00:33.966Z,104
2022-11-02T18:06:17.638Z,106
2022-11-02T18:11:57.914Z,100
2022-11-02T18:17:40.690Z,104
2022-11-02T18:23:23.751Z,106
2022-11-02T18:29:04.234Z,104
2022-11-02T18:34:46.320Z,98
2022-11-02T18:40:37.862Z,102
2022-11-02T18:46:31.136Z,94
2022-11-02T18:52:11.656Z,90
2022-11-02T18:57:52.225Z,100
2022-11-02T19:09:12.978Z,94
2022-11-02T19:14:53.242Z,110
2022-11-02T19:20:33.472Z,102
2022-11-02T19:26:15.186Z,92
2022-11-02T19:31:55.652Z,104
2022-11-02T19:37:35.922Z,100
2022-11-02T19:43:16.525Z,92
2022-11-02T19:48:56.887Z,104
2022-11-02T19:54:40.492Z,124
2022-11-02T20:00:20.828Z,88
2022-11-02T20:06:01.324Z,100
2022-11-02T20:11:41.829Z,90
2022-11-02T20:18:24.765Z,106
2022-11-02T20:24:05.871Z,94
2022-11-02T20:29:46.421Z,90
2022-11-02T20:35:29.365Z,92
2022-11-02T20:41:09.746Z,106
2022-11-02T20:46:54.293Z,100
2022-11-02T20:52:34.756Z,92
2022-11-02T20:58:15.303Z,100
2022-11-02T21:03:55.568Z,104
2022-11-02T21:09:35.819Z,98
2022-11-02T21:15:16.150Z,90
2022-11-02T21:20:56.464Z,90
2022-11-02T21:26:37.023Z,90
2022-11-02T21:37:59.135Z,108
2022-11-02T21:43:41.736Z,94
2022-11-02T21:49:22.201Z,104
2022-11-02T21:55:02.367Z,104
2022-11-02T22:00:42.715Z,128
2022-11-02T22:06:32.611Z,104
2022-11-02T22:18:54.812Z,94
2022-11-02T22:24:34.947Z,94
2022-11-02T22:30:15.617Z,94
2022-11-02T22:41:36.394Z,94
2022-11-02T22:47:17.511Z,98
2022-11-02T22:52:57.926Z,104
2022-11-02T22:58:38.130Z,104
2022-11-02T23:04:20.844Z,94
2022-11-02T23:10:01.374Z,94
2022-11-02T23:15:41.503Z,124
2022-11-02T23:21:21.688Z,100
2022-11-02T23:27:01.982Z,92
2022-11-02T23:32:42.200Z,100
2022-11-02T23:38:22.677Z,92
2022-11-02T23:44:03.168Z,90
2022-11-02T23:49:43.617Z,92
2022-11-02T23:55:23.807Z,96
